Flight Track Log - Related Links

Times and Time Zones

All times are in EDT time to prevent confusion due to time zone crossing. See the LMO5045 flight status page for this flight to view local times or setup timezone preferences in your user account.

Time Position Orientation Groundspeed Altitude Reporting Facility
EDT Latitude Longitude Course Direction KTS MPH feet Rate Location/Type
Thu 03:40:46 PM 27.9167 -82.7000 344° North 166 191 400  Level Tampa TRACON
Thu 03:41:46 PM 27.9667 -82.7167 344° North 201 231 2,000 1,238 Climbing Tampa TRACON
Thu 03:42:52 PM 28.0000 -82.6667 53° Northeast 220 253 3,000 500 Climbing Tampa TRACON
Thu 03:43:46 PM 27.9833 -82.6000 106° East 240 276 3,000  Level Tampa TRACON
Thu 03:44:52 PM 27.9667 -82.5167 103° East 236 272 3,000  Level Tampa TRACON
Thu 03:45:52 PM 27.9667 -82.4500 90° East 234 269 3,000 450 Level Tampa TRACON
Thu 03:46:52 PM 28.0000 -82.3833 60° Northeast 238 274 3,900 1,300 Climbing Tampa TRACON
Thu 03:47:52 PM 28.0333 -82.3333 53° Northeast 227 261 5,600 1,537 Climbing Tampa TRACON
Thu 03:48:53 PM 28.0833 -82.2833 41° Northeast 228 262 7,000 700 Climbing Tampa TRACON
Thu 03:49:52 PM 28.1167 -82.2167 60° Northeast 272 313 7,000  Level Tampa TRACON
Thu 03:50:53 PM 28.1667 -82.1500 50° Northeast 290 334 7,000 -68 Level Tampa TRACON
Thu 03:52:49 PM 28.2667 -82.0167 50° Northeast 276 318 6,800 -34 Descending Orlando TRACON
Thu 03:53:49 PM 28.3167 -81.9333 56° Northeast 279 321 6,900  Climbing Orlando TRACON
Thu 03:54:49 PM 28.3333 -81.8667 74° East 276 318 6,800 -762 Descending Orlando TRACON
Thu 03:55:55 PM 28.3833 -81.7667 60° Northeast 279 321 5,300 -1,619 Descending Orlando TRACON
Thu 03:56:55 PM 28.4000 -81.7000 74° East 237 273 3,400 -1,789 Descending Orlando TRACON
Thu 03:57:49 PM 28.4333 -81.6333 60° Northeast 234 269 1,900 -750 Descending Orlando TRACON
Thu 03:58:55 PM 28.4500 -81.5667 74° East 180 207 1,900 -236 Level Orlando TRACON
Thu 03:59:56 PM 28.4667 -81.5167 69° East 182 209 1,400 -248 Descending Orlando TRACON
Thu 04:00:56 PM 28.5000 -81.4667 53° Northeast 166 191 1,400  Level Orlando TRACON
Thu 04:01:56 PM 28.5167 -81.4167 69° East 164 189 1,400 -250 Level Orlando TRACON
Thu 04:02:56 PM 28.5333 -81.3833 60° Northeast 139 160 900 -500 Descending Orlando TRACON
Thu 04:04:00 PM 28.5455 -81.3329 66° East  Level Estimated
Thu 04:11:00 PM 28.5455 -81.3329 66° East  Level Estimated
Thu 04:12:00 PM 28.5455 -81.3329 130° Southeast  Level Estimated
Thu 04:13:00 PM 28.5455 -81.3329 66° East  Level Estimated

Login

Don't have an account? Register now (free) for customized features, flight alerts, and more!